createdAt,value
2017-05-14T00:00:31.732Z,0
2017-05-14T00:01:12.223Z,0
2017-05-14T00:01:52.754Z,0
2017-05-14T00:02:33.215Z,0
2017-05-14T00:03:13.701Z,0
2017-05-14T00:03:54.256Z,0
2017-05-14T00:04:34.747Z,0
2017-05-14T00:05:15.262Z,0
2017-05-14T00:05:55.788Z,0
2017-05-14T00:06:40.582Z,0
2017-05-14T00:07:21.082Z,0
2017-05-14T00:08:01.603Z,0
2017-05-14T00:08:42.121Z,0
2017-05-14T00:09:22.612Z,0
2017-05-14T00:10:03.123Z,0
2017-05-14T00:10:43.614Z,0
2017-05-14T00:13:24.594Z,0
2017-05-14T00:14:05.129Z,0
2017-05-14T00:14:45.644Z,0
2017-05-14T00:15:26.169Z,0
2017-05-14T00:16:06.692Z,0
2017-05-14T00:16:47.211Z,0
2017-05-14T00:17:27.737Z,0
2017-05-14T00:18:08.287Z,0
2017-05-14T00:18:48.734Z,0
2017-05-14T00:19:29.227Z,0
2017-05-14T00:20:09.736Z,0
2017-05-14T00:20:50.283Z,0
2017-05-14T00:21:31.814Z,0
2017-05-14T00:22:12.343Z,0
2017-05-14T00:22:52.826Z,0
2017-05-14T00:23:33.305Z,0
2017-05-14T00:24:13.802Z,0
2017-05-14T00:24:54.313Z,0
2017-05-14T00:25:34.779Z,0
2017-05-14T00:26:21.505Z,0
2017-05-14T00:26:58.251Z,0
2017-05-14T00:27:38.692Z,0
2017-05-14T00:28:19.249Z,0
2017-05-14T00:28:59.752Z,0
2017-05-14T00:29:40.257Z,0
2017-05-14T00:30:20.746Z,0
2017-05-14T00:31:01.267Z,0
2017-05-14T00:31:43.506Z,0
2017-05-14T00:32:23.972Z,0
2017-05-14T00:33:04.458Z,0
2017-05-14T00:33:44.972Z,0
2017-05-14T00:34:25.441Z,0
2017-05-14T00:35:05.951Z,0
2017-05-14T00:35:46.446Z,0
2017-05-14T00:36:28.448Z,0
2017-05-14T00:37:08.952Z,0
2017-05-14T00:37:49.459Z,0
2017-05-14T00:38:29.964Z,0
2017-05-14T00:39:10.496Z,0
2017-05-14T00:39:50.942Z,0
2017-05-14T00:40:31.433Z,0
2017-05-14T00:41:12.077Z,0
2017-05-14T00:41:52.745Z,0
2017-05-14T00:42:33.259Z,0
2017-05-14T00:43:13.767Z,0
2017-05-14T00:43:54.214Z,0
2017-05-14T00:44:34.715Z,0
2017-05-14T00:45:15.231Z,0
2017-05-14T00:45:55.747Z,0
2017-05-14T00:46:36.618Z,0
2017-05-14T00:47:17.132Z,0
2017-05-14T00:47:57.673Z,0
2017-05-14T00:48:38.163Z,0
2017-05-14T00:49:18.682Z,0
2017-05-14T00:49:59.167Z,0
2017-05-14T00:50:39.694Z,0
2017-05-14T00:51:23.592Z,0
2017-05-14T00:52:02.419Z,0
2017-05-14T00:52:42.950Z,0
2017-05-14T00:53:23.465Z,0
2017-05-14T00:54:03.981Z,0
2017-05-14T00:54:44.500Z,0
2017-05-14T00:55:25.006Z,0
2017-05-14T00:56:05.530Z,0
2017-05-14T00:56:46.050Z,0
2017-05-14T00:57:26.577Z,0
2017-05-14T00:58:07.092Z,0
2017-05-14T00:58:47.615Z,0
2017-05-14T00:59:28.120Z,0
2017-05-14T01:00:08.610Z,0
2017-05-14T01:00:49.112Z,0
2017-05-14T01:01:29.630Z,0
2017-05-14T01:02:10.149Z,0
2017-05-14T01:02:50.678Z,0
2017-05-14T01:03:31.170Z,0
2017-05-14T01:04:11.669Z,0
2017-05-14T01:04:52.169Z,0
2017-05-14T01:05:32.677Z,0
2017-05-14T01:06:18.095Z,0
2017-05-14T01:06:56.799Z,0
2017-05-14T01:07:37.264Z,0
2017-05-14T01:08:17.745Z,0
2017-05-14T01:08:58.252Z,0
2017-05-14T01:09:38.747Z,0
2017-05-14T01:10:19.241Z,0
2017-05-14T01:10:59.748Z,0
2017-05-14T01:11:42.497Z,0
2017-05-14T01:12:22.943Z,0
2017-05-14T01:13:03.437Z,0
2017-05-14T01:13:43.953Z,0
2017-05-14T01:14:24.475Z,0
2017-05-14T01:15:04.958Z,0
2017-05-14T01:15:45.423Z,0
2017-05-14T01:16:29.875Z,0
2017-05-14T01:17:10.378Z,0
2017-05-14T01:17:50.883Z,0
2017-05-14T01:18:31.401Z,0
2017-05-14T01:19:11.917Z,0
2017-05-14T01:19:52.440Z,0
2017-05-14T01:20:32.948Z,0
2017-05-14T01:21:18.309Z,0
2017-05-14T01:21:55.348Z,0
2017-05-14T01:22:35.837Z,0
2017-05-14T01:23:16.331Z,0
2017-05-14T01:23:56.885Z,0
2017-05-14T01:24:37.351Z,0
2017-05-14T01:25:17.830Z,0
2017-05-14T01:25:58.399Z,0
2017-05-14T01:26:44.038Z,0
2017-05-14T01:27:24.586Z,0
2017-05-14T01:28:05.026Z,0
2017-05-14T01:28:45.541Z,0
2017-05-14T01:29:26.081Z,0
2017-05-14T01:30:06.584Z,0
2017-05-14T01:30:47.024Z,0
2017-05-14T01:31:30.165Z,0
2017-05-14T01:32:10.674Z,0
2017-05-14T01:32:51.144Z,0
2017-05-14T01:33:31.650Z,0
2017-05-14T01:34:12.150Z,0
2017-05-14T01:34:52.627Z,0
2017-05-14T01:35:33.136Z,0
2017-05-14T01:36:14.805Z,0
2017-05-14T01:36:56.423Z,0
2017-05-14T01:37:36.931Z,0
2017-05-14T01:38:17.426Z,0
2017-05-14T01:38:57.965Z,0
2017-05-14T01:39:38.463Z,0
2017-05-14T01:40:18.922Z,0
2017-05-14T01:40:59.440Z,0
2017-05-14T01:41:41.489Z,0
2017-05-14T01:42:21.946Z,0
2017-05-14T01:43:02.424Z,0
2017-05-14T01:43:42.943Z,0
2017-05-14T01:44:23.447Z,0
2017-05-14T01:45:03.962Z,0
2017-05-14T01:45:44.460Z,0
2017-05-14T01:46:27.514Z,0
2017-05-14T01:47:08.041Z,0
2017-05-14T01:47:48.502Z,0
2017-05-14T01:48:29.003Z,0
2017-05-14T01:49:09.493Z,0
2017-05-14T01:49:49.980Z,0
2017-05-14T01:50:30.473Z,0
2017-05-14T01:51:10.976Z,0
2017-05-14T01:51:51.506Z,0
2017-05-14T01:52:32.040Z,0
2017-05-14T01:53:12.566Z,0
2017-05-14T01:53:53.088Z,0
2017-05-14T01:54:33.599Z,0
2017-05-14T01:55:14.129Z,0
2017-05-14T01:55:54.603Z,0
2017-05-14T01:56:35.550Z,0
2017-05-14T01:57:16.052Z,0
2017-05-14T01:57:56.545Z,0
2017-05-14T01:58:37.050Z,0
2017-05-14T02:01:05.540Z,0
2017-05-14T02:01:46.066Z,0
2017-05-14T02:02:26.573Z,0
2017-05-14T02:03:07.093Z,0
2017-05-14T02:03:47.612Z,0
2017-05-14T02:04:28.131Z,0
2017-05-14T02:05:08.647Z,0
2017-05-14T02:05:49.209Z,0
2017-05-14T02:06:30.504Z,0
2017-05-14T02:07:10.986Z,0
2017-05-14T02:07:51.463Z,0
2017-05-14T02:08:31.980Z,0
2017-05-14T02:09:12.497Z,0
2017-05-14T02:09:53.021Z,0
2017-05-14T02:10:33.533Z,0
2017-05-14T02:11:14.010Z,0
2017-05-14T02:11:54.534Z,0
2017-05-14T02:12:35.009Z,0
2017-05-14T02:13:15.526Z,0
2017-05-14T02:13:56.049Z,0
2017-05-14T02:14:36.569Z,0
2017-05-14T02:15:17.080Z,0
2017-05-14T02:15:57.596Z,0
2017-05-14T02:16:38.797Z,0
2017-05-14T02:17:19.323Z,0
2017-05-14T02:17:59.843Z,0
2017-05-14T02:18:40.364Z,0
2017-05-14T02:19:20.888Z,0
2017-05-14T02:20:01.392Z,0
2017-05-14T02:20:41.886Z,0
2017-05-14T02:21:23.408Z,0
2017-05-14T02:22:03.918Z,0
2017-05-14T02:22:44.420Z,0
2017-05-14T02:23:24.934Z,0
2017-05-14T02:24:05.457Z,0
2017-05-14T02:24:45.944Z,0
2017-05-14T02:25:26.461Z,0
2017-05-14T02:26:06.970Z,0
2017-05-14T02:26:47.489Z,0
2017-05-14T02:27:27.958Z,0
2017-05-14T02:28:08.488Z,0
2017-05-14T02:28:48.999Z,0
2017-05-14T02:29:29.475Z,0
2017-05-14T02:30:09.979Z,0
2017-05-14T02:30:50.515Z,0
2017-05-14T02:31:31.023Z,0
2017-05-14T02:32:11.517Z,0
2017-05-14T02:32:51.988Z,0
2017-05-14T02:33:32.496Z,0
2017-05-14T02:34:13.016Z,0
2017-05-14T02:34:53.547Z,0
2017-05-14T02:35:34.033Z,0
2017-05-14T02:36:29.400Z,0
2017-05-14T02:37:09.873Z,0
2017-05-14T02:37:50.379Z,0
2017-05-14T02:38:30.884Z,0
2017-05-14T02:39:11.389Z,0
2017-05-14T02:39:51.921Z,0
2017-05-14T02:40:32.416Z,0
2017-05-14T02:41:12.922Z,0
2017-05-14T02:41:53.444Z,0
2017-05-14T02:42:33.945Z,0
2017-05-14T02:43:14.484Z,0
2017-05-14T02:43:54.934Z,0
2017-05-14T02:44:35.459Z,0
2017-05-14T02:45:16.014Z,0
2017-05-14T02:45:56.478Z,0
2017-05-14T02:46:38.183Z,0
2017-05-14T02:47:18.632Z,0
2017-05-14T02:47:59.139Z,0
2017-05-14T02:48:39.667Z,0
2017-05-14T02:49:20.169Z,0
2017-05-14T02:50:00.724Z,0
2017-05-14T02:50:41.229Z,0
2017-05-14T02:51:21.880Z,0
2017-05-14T02:52:02.379Z,0
2017-05-14T02:52:42.892Z,0
2017-05-14T02:53:23.381Z,0
2017-05-14T02:54:03.885Z,0
2017-05-14T02:54:44.393Z,0
2017-05-14T02:55:24.891Z,0
2017-05-14T02:56:05.431Z,0
2017-05-14T02:56:45.991Z,0
2017-05-14T02:57:26.470Z,0
2017-05-14T02:58:06.964Z,0
2017-05-14T02:58:47.477Z,0
2017-05-14T02:59:27.991Z,0
2017-05-14T03:00:08.475Z,0
2017-05-14T03:00:49.043Z,0
2017-05-14T03:01:29.603Z,0
2017-05-14T03:02:10.120Z,0
2017-05-14T03:02:50.631Z,0
2017-05-14T03:03:31.155Z,0
2017-05-14T03:04:11.658Z,0
2017-05-14T03:04:52.167Z,0
2017-05-14T03:05:32.676Z,0
2017-05-14T03:06:13.184Z,0
2017-05-14T03:06:53.695Z,0
2017-05-14T03:07:34.219Z,0
2017-05-14T03:08:14.743Z,0
2017-05-14T03:08:55.266Z,0
2017-05-14T03:09:35.802Z,0
2017-05-14T03:10:16.315Z,0
2017-05-14T03:10:56.848Z,0
2017-05-14T03:11:44.199Z,0
2017-05-14T03:12:24.712Z,0
2017-05-14T03:13:05.209Z,0
2017-05-14T03:13:45.727Z,0
2017-05-14T03:14:26.236Z,0
2017-05-14T03:15:06.749Z,0
2017-05-14T03:15:47.267Z,0
2017-05-14T03:16:30.370Z,0
2017-05-14T03:17:10.878Z,0
2017-05-14T03:17:51.407Z,0
2017-05-14T03:18:31.951Z,0
2017-05-14T03:19:12.408Z,0
2017-05-14T03:19:52.911Z,0
2017-05-14T03:20:33.419Z,0
2017-05-14T03:21:13.893Z,0
2017-05-14T03:21:54.410Z,0
2017-05-14T03:22:34.932Z,0
2017-05-14T03:23:15.433Z,0
2017-05-14T03:23:55.955Z,0
2017-05-14T03:24:36.472Z,0
2017-05-14T03:25:17.008Z,0
2017-05-14T03:25:57.532Z,0
2017-05-14T03:26:39.986Z,0
2017-05-14T03:27:20.498Z,0
2017-05-14T03:28:01.014Z,0
2017-05-14T03:28:41.530Z,0
2017-05-14T03:29:22.057Z,0
2017-05-14T03:30:02.576Z,0
2017-05-14T03:30:43.065Z,0
2017-05-14T03:31:27.323Z,0
2017-05-14T03:32:07.707Z,0
2017-05-14T03:32:48.261Z,0
2017-05-14T03:33:28.770Z,0
2017-05-14T03:34:09.244Z,0
2017-05-14T03:34:49.754Z,0
2017-05-14T03:35:30.248Z,0
2017-05-14T03:36:10.744Z,0
2017-05-14T03:36:51.265Z,0
2017-05-14T03:37:31.755Z,0
2017-05-14T03:38:12.267Z,0
2017-05-14T03:38:52.742Z,0
2017-05-14T03:39:33.261Z,0
2017-05-14T03:40:13.738Z,0
2017-05-14T03:40:54.271Z,0
2017-05-14T03:41:35.623Z,0
2017-05-14T03:42:16.084Z,0
2017-05-14T03:42:56.571Z,0
2017-05-14T03:43:37.085Z,0
2017-05-14T03:44:17.584Z,0
2017-05-14T03:44:58.029Z,0
2017-05-14T03:45:38.532Z,0
2017-05-14T03:46:23.019Z,0
2017-05-14T03:47:00.570Z,0
2017-05-14T03:47:41.131Z,0
2017-05-14T03:48:21.614Z,0
2017-05-14T03:49:02.130Z,0
2017-05-14T03:49:42.641Z,0
2017-05-14T03:50:23.158Z,0
2017-05-14T03:51:03.671Z,0
2017-05-14T03:51:45.850Z,0
2017-05-14T03:52:26.367Z,0
2017-05-14T03:53:06.884Z,0
2017-05-14T03:53:47.391Z,0
2017-05-14T03:54:27.923Z,0
2017-05-14T03:55:08.421Z,0
2017-05-14T03:55:48.948Z,0
2017-05-14T03:56:29.810Z,0
2017-05-14T03:57:10.327Z,0
2017-05-14T03:57:50.846Z,0
2017-05-14T03:58:31.362Z,0
2017-05-14T03:59:11.875Z,0
2017-05-14T03:59:52.398Z,0
2017-05-14T04:00:32.893Z,0
2017-05-14T04:01:13.390Z,0
2017-05-14T04:01:53.930Z,0
2017-05-14T04:02:34.428Z,0
2017-05-14T04:03:14.933Z,0
2017-05-14T04:03:55.440Z,0
2017-05-14T04:04:35.961Z,0
2017-05-14T04:06:54.449Z,0
2017-05-14T04:07:34.965Z,0
2017-05-14T04:08:15.479Z,0
2017-05-14T04:08:55.988Z,0
2017-05-14T04:09:36.523Z,5
2017-05-14T04:10:17.034Z,5
2017-05-14T04:10:57.549Z,5
2017-05-14T04:11:39.306Z,5
2017-05-14T04:12:19.778Z,5
2017-05-14T04:13:00.278Z,5
2017-05-14T04:13:40.783Z,5
2017-05-14T04:14:21.281Z,5
2017-05-14T04:15:01.790Z,5
2017-05-14T04:15:42.315Z,5
2017-05-14T04:16:29.404Z,5
2017-05-14T04:17:09.901Z,5
2017-05-14T04:17:50.413Z,5
2017-05-14T04:18:30.932Z,5
2017-05-14T04:19:11.448Z,5
2017-05-14T04:19:51.958Z,5
2017-05-14T04:20:32.465Z,5
2017-05-14T04:21:12.969Z,5
2017-05-14T04:23:31.496Z,5
2017-05-14T04:24:11.998Z,5
2017-05-14T04:24:52.522Z,5
2017-05-14T04:25:33.029Z,10
2017-05-14T04:26:13.594Z,10
2017-05-14T04:26:54.039Z,10
2017-05-14T04:27:34.567Z,10
2017-05-14T04:28:15.086Z,10
2017-05-14T04:28:55.607Z,10
2017-05-14T04:29:36.110Z,10
2017-05-14T04:30:16.587Z,15
2017-05-14T04:30:57.101Z,15
2017-05-14T04:31:42.639Z,15
2017-05-14T04:32:23.124Z,15
2017-05-14T04:33:03.648Z,15
2017-05-14T04:33:44.195Z,15
2017-05-14T04:34:24.684Z,15
2017-05-14T04:35:05.187Z,15
2017-05-14T04:35:45.684Z,15
2017-05-14T04:36:29.292Z,15
2017-05-14T04:38:57.777Z,20
2017-05-14T04:39:38.308Z,20
2017-05-14T04:40:18.826Z,20
2017-05-14T04:40:59.347Z,25
2017-05-14T04:41:42.592Z,25
2017-05-14T04:42:23.089Z,25
2017-05-14T04:43:03.667Z,25
2017-05-14T04:43:44.134Z,25
2017-05-14T04:44:24.649Z,25
2017-05-14T04:45:05.159Z,25
2017-05-14T04:45:45.639Z,25
2017-05-14T04:46:27.211Z,25
2017-05-14T04:47:07.711Z,25
2017-05-14T04:47:48.234Z,25
2017-05-14T04:48:28.746Z,25
2017-05-14T04:49:09.271Z,25
2017-05-14T04:49:49.793Z,25
2017-05-14T04:50:30.313Z,25
2017-05-14T04:51:10.835Z,25
2017-05-14T04:51:51.325Z,25
2017-05-14T04:52:31.842Z,25
2017-05-14T04:53:12.345Z,25
2017-05-14T04:53:52.867Z,25
2017-05-14T04:54:33.386Z,25
2017-05-14T04:55:13.912Z,25
2017-05-14T04:55:54.424Z,25
2017-05-14T04:56:38.282Z,25
2017-05-14T04:57:18.763Z,25
2017-05-14T04:57:59.366Z,25
2017-05-14T04:58:39.876Z,25
2017-05-14T04:59:20.395Z,25
2017-05-14T05:00:00.898Z,25
2017-05-14T05:00:41.419Z,25
2017-05-14T05:03:20.077Z,25
2017-05-14T05:04:00.594Z,25
2017-05-14T05:04:41.127Z,25
2017-05-14T05:05:21.638Z,25
2017-05-14T05:06:02.171Z,25
2017-05-14T05:06:43.214Z,30
2017-05-14T05:07:23.750Z,30
2017-05-14T05:08:04.257Z,30
2017-05-14T05:08:44.784Z,30
2017-05-14T05:09:25.316Z,35
2017-05-14T05:10:05.856Z,35
2017-05-14T05:10:46.380Z,35
2017-05-14T05:11:29.340Z,35
2017-05-14T05:12:09.817Z,35
2017-05-14T05:12:50.375Z,35
2017-05-14T05:13:30.841Z,35
2017-05-14T05:14:11.354Z,35
2017-05-14T05:14:51.807Z,35
2017-05-14T05:15:32.312Z,35
2017-05-14T05:16:12.834Z,35
2017-05-14T05:16:53.326Z,35
2017-05-14T05:17:33.817Z,35
2017-05-14T05:18:14.364Z,35
2017-05-14T05:18:54.807Z,35
2017-05-14T05:19:35.340Z,35
2017-05-14T05:20:15.836Z,35
2017-05-14T05:20:56.289Z,35
2017-05-14T05:21:39.458Z,30
2017-05-14T05:22:19.922Z,30
2017-05-14T05:23:00.454Z,30
2017-05-14T05:23:40.943Z,30
2017-05-14T05:24:21.427Z,30
2017-05-14T05:25:01.933Z,30
2017-05-14T05:25:42.431Z,30
2017-05-14T05:26:24.926Z,30
2017-05-14T05:27:05.382Z,30
2017-05-14T05:27:45.877Z,30
2017-05-14T05:28:26.368Z,30
2017-05-14T05:29:06.862Z,30
2017-05-14T05:29:47.386Z,30
2017-05-14T05:30:27.890Z,30
2017-05-14T05:31:08.401Z,30
2017-05-14T05:31:48.898Z,30
2017-05-14T05:32:29.396Z,30
2017-05-14T05:33:09.906Z,30
2017-05-14T05:33:50.410Z,30
2017-05-14T05:34:30.930Z,30
2017-05-14T05:35:11.438Z,30
2017-05-14T05:35:51.949Z,35
2017-05-14T05:36:32.450Z,35
2017-05-14T05:37:12.972Z,35
2017-05-14T05:37:53.435Z,35
2017-05-14T05:38:33.997Z,35
2017-05-14T05:39:14.433Z,40
2017-05-14T05:39:54.936Z,40
2017-05-14T05:40:35.425Z,40
2017-05-14T05:41:16.040Z,40
2017-05-14T05:41:56.442Z,40
2017-05-14T05:42:36.967Z,40
2017-05-14T05:43:17.479Z,40
2017-05-14T05:43:57.967Z,40
2017-05-14T05:44:38.476Z,40
2017-05-14T05:45:18.979Z,40
2017-05-14T05:45:59.496Z,40
2017-05-14T05:46:42.039Z,40
2017-05-14T05:47:22.504Z,45
2017-05-14T05:48:03.013Z,45
2017-05-14T05:48:43.557Z,45
2017-05-14T05:49:23.995Z,45
2017-05-14T05:50:04.491Z,50
2017-05-14T05:50:44.995Z,50
2017-05-14T05:51:27.967Z,50
2017-05-14T05:52:08.485Z,55
2017-05-14T05:52:48.987Z,60
2017-05-14T05:53:29.507Z,60
2017-05-14T05:54:10.025Z,65
2017-05-14T05:54:50.538Z,70
2017-05-14T05:55:31.057Z,75
2017-05-14T05:56:11.572Z,70
2017-05-14T05:56:52.099Z,70
2017-05-14T05:57:32.615Z,70
2017-05-14T05:58:13.676Z,70
2017-05-14T05:58:54.155Z,75
2017-05-14T05:59:34.669Z,80
2017-05-14T06:00:15.235Z,80
2017-05-14T06:00:55.687Z,75
2017-05-14T06:01:39.752Z,75
2017-05-14T06:02:20.246Z,75
2017-05-14T06:03:00.996Z,75
2017-05-14T06:03:41.451Z,75
2017-05-14T06:04:21.939Z,75
2017-05-14T06:05:02.493Z,75
2017-05-14T06:05:43.053Z,75
2017-05-14T06:06:23.619Z,75
2017-05-14T06:07:04.144Z,75
2017-05-14T06:07:45.098Z,75
2017-05-14T06:08:25.573Z,75
2017-05-14T06:09:06.042Z,75
2017-05-14T06:09:46.992Z,75
2017-05-14T06:10:27.100Z,75
2017-05-14T06:11:07.652Z,75
2017-05-14T06:11:48.037Z,75
2017-05-14T06:12:28.544Z,75
2017-05-14T06:13:09.103Z,75
2017-05-14T06:13:49.661Z,75
2017-05-14T06:14:30.097Z,75
2017-05-14T06:15:10.674Z,75
2017-05-14T06:15:51.244Z,75
2017-05-14T06:16:31.763Z,75
2017-05-14T06:17:12.277Z,75
2017-05-14T06:17:52.762Z,75
2017-05-14T06:18:33.279Z,75
2017-05-14T06:19:13.762Z,75
2017-05-14T06:19:54.309Z,75
2017-05-14T06:20:34.789Z,75
2017-05-14T06:21:59.452Z,75
2017-05-14T06:22:43.155Z,75
2017-05-14T06:23:23.615Z,70
2017-05-14T06:24:04.136Z,70
2017-05-14T06:24:45.197Z,70
2017-05-14T06:25:28.406Z,70
2017-05-14T06:26:09.451Z,70
2017-05-14T06:26:49.830Z,70
2017-05-14T06:27:30.300Z,70
2017-05-14T06:28:10.778Z,70
2017-05-14T06:28:51.302Z,70
2017-05-14T06:29:31.863Z,70
2017-05-14T06:30:12.301Z,70
2017-05-14T06:30:52.845Z,70
2017-05-14T06:31:33.600Z,65
2017-05-14T06:32:14.410Z,65
2017-05-14T06:32:54.947Z,65
2017-05-14T06:33:35.392Z,65
2017-05-14T06:34:15.872Z,65
2017-05-14T06:34:56.367Z,65
2017-05-14T06:35:36.839Z,65
2017-05-14T06:36:18.583Z,70
2017-05-14T06:36:58.476Z,70
2017-05-14T06:37:38.952Z,65
2017-05-14T06:38:19.470Z,65
2017-05-14T06:38:59.987Z,70
2017-05-14T06:39:40.473Z,70
2017-05-14T06:40:21.009Z,70
2017-05-14T06:41:01.462Z,70
2017-05-14T06:41:42.696Z,70
2017-05-14T06:42:23.169Z,70
2017-05-14T06:43:03.657Z,75
2017-05-14T06:43:44.168Z,75
2017-05-14T06:44:25.828Z,75
2017-05-14T06:45:06.378Z,75
2017-05-14T06:45:47.039Z,75
2017-05-14T06:46:30.407Z,75
2017-05-14T06:47:10.940Z,75
2017-05-14T06:47:51.457Z,75
2017-05-14T06:48:32.092Z,75
2017-05-14T06:49:12.594Z,70
2017-05-14T06:49:53.148Z,70
2017-05-14T06:50:33.654Z,70
2017-05-14T06:51:14.098Z,70
2017-05-14T06:51:54.677Z,70
2017-05-14T06:52:35.431Z,75
2017-05-14T06:53:15.659Z,75
2017-05-14T06:53:56.198Z,75
2017-05-14T06:54:37.164Z,75
2017-05-14T06:55:18.482Z,75
2017-05-14T06:55:58.987Z,75
2017-05-14T06:57:10.952Z,75
2017-05-14T06:57:51.422Z,75
2017-05-14T06:58:32.016Z,75
2017-05-14T06:59:12.425Z,75
2017-05-14T06:59:52.963Z,70
2017-05-14T07:00:33.454Z,70
2017-05-14T07:01:14.012Z,70
2017-05-14T07:01:55.247Z,70
2017-05-14T07:02:35.734Z,65
2017-05-14T07:03:16.310Z,65
2017-05-14T07:03:56.747Z,65
2017-05-14T07:04:37.297Z,65
2017-05-14T07:05:18.033Z,60
2017-05-14T07:05:58.253Z,60
2017-05-14T07:06:45.300Z,60
2017-05-14T07:07:25.794Z,55
2017-05-14T07:08:06.285Z,55
2017-05-14T07:08:46.783Z,55
2017-05-14T07:09:27.323Z,55
2017-05-14T07:10:07.823Z,55
2017-05-14T07:10:48.314Z,55
2017-05-14T07:13:24.887Z,55
2017-05-14T07:14:05.376Z,55
2017-05-14T07:14:45.885Z,55
2017-05-14T07:15:26.394Z,55
2017-05-14T07:16:07.079Z,55
2017-05-14T07:16:53.876Z,55
2017-05-14T07:17:34.391Z,55
2017-05-14T07:18:14.882Z,55
2017-05-14T07:18:55.355Z,55
2017-05-14T07:19:35.898Z,55
2017-05-14T07:20:16.593Z,55
2017-05-14T07:20:57.083Z,55
2017-05-14T07:21:38.557Z,55
2017-05-14T07:22:19.138Z,55
2017-05-14T07:22:59.635Z,55
2017-05-14T07:23:40.152Z,55
2017-05-14T07:24:20.916Z,55
2017-05-14T07:25:01.460Z,55
2017-05-14T07:25:41.985Z,55
2017-05-14T07:26:24.810Z,55
2017-05-14T07:27:04.994Z,55
2017-05-14T07:27:45.504Z,55
2017-05-14T07:28:26.019Z,55
2017-05-14T07:29:06.549Z,55
2017-05-14T07:29:47.054Z,60
2017-05-14T07:30:27.564Z,60
2017-05-14T07:31:08.092Z,60
2017-05-14T07:31:48.669Z,60
2017-05-14T07:32:29.153Z,60
2017-05-14T07:33:09.724Z,60
2017-05-14T07:33:50.296Z,60
2017-05-14T07:34:30.751Z,60
2017-05-14T07:35:11.277Z,60
2017-05-14T07:35:51.785Z,60
2017-05-14T07:36:32.445Z,60
2017-05-14T07:37:12.879Z,60
2017-05-14T07:37:53.418Z,60
2017-05-14T07:38:33.991Z,65
2017-05-14T07:40:47.302Z,65
2017-05-14T07:41:27.803Z,70
2017-05-14T07:42:08.326Z,70
2017-05-14T07:42:48.825Z,70
2017-05-14T07:43:29.326Z,70
2017-05-14T07:44:09.822Z,70
2017-05-14T07:44:50.306Z,70
2017-05-14T07:45:30.863Z,70
2017-05-14T07:46:11.330Z,75
2017-05-14T07:46:51.864Z,75
2017-05-14T07:47:32.454Z,75
2017-05-14T07:48:12.896Z,80
2017-05-14T07:48:53.357Z,80
2017-05-14T07:49:33.850Z,80
2017-05-14T07:50:14.348Z,85
2017-05-14T07:50:54.837Z,90
2017-05-14T07:51:35.364Z,90
2017-05-14T07:52:15.866Z,90
2017-05-14T07:52:56.803Z,90
2017-05-14T07:53:37.315Z,95
2017-05-14T07:54:17.822Z,95
2017-05-14T07:54:58.348Z,95
2017-05-14T07:55:38.879Z,95
2017-05-14T07:56:19.365Z,95
2017-05-14T07:56:59.899Z,95
2017-05-14T07:57:40.411Z,95
2017-05-14T07:58:20.885Z,100
2017-05-14T07:59:02.827Z,95
2017-05-14T07:59:43.423Z,95
2017-05-14T08:00:23.950Z,95
2017-05-14T08:01:04.481Z,95
2017-05-14T08:01:44.942Z,95
2017-05-14T08:02:25.541Z,100
2017-05-14T08:03:06.030Z,100
2017-05-14T08:03:46.545Z,100
2017-05-14T08:04:26.997Z,100
2017-05-14T08:05:07.580Z,100
2017-05-14T08:05:48.052Z,100
2017-05-14T08:06:28.540Z,100
2017-05-14T08:07:09.024Z,100
2017-05-14T08:07:49.551Z,105
2017-05-14T08:08:30.050Z,105
2017-05-14T08:09:10.591Z,105
2017-05-14T08:09:51.161Z,105
2017-05-14T08:10:31.621Z,105
2017-05-14T08:11:12.104Z,105
2017-05-14T08:11:52.590Z,105
2017-05-14T08:12:33.126Z,105
2017-05-14T08:13:13.641Z,105
2017-05-14T08:13:54.151Z,105
2017-05-14T08:14:34.642Z,100
2017-05-14T08:15:15.150Z,100
2017-05-14T08:15:55.633Z,100
2017-05-14T08:16:37.021Z,105
2017-05-14T08:17:17.482Z,105
2017-05-14T08:17:57.954Z,105
2017-05-14T08:18:38.461Z,105
2017-05-14T08:19:18.961Z,105
2017-05-14T08:19:59.500Z,105
2017-05-14T08:20:40.049Z,105
2017-05-14T08:21:23.251Z,105
2017-05-14T08:22:03.553Z,105
2017-05-14T08:22:44.021Z,105
2017-05-14T08:23:24.532Z,105
2017-05-14T08:24:05.050Z,105
2017-05-14T08:24:45.534Z,105
2017-05-14T08:25:26.042Z,105
2017-05-14T08:26:06.563Z,105
2017-05-14T08:26:47.043Z,105
2017-05-14T08:27:27.561Z,105
2017-05-14T08:28:08.090Z,105
2017-05-14T08:28:48.581Z,110
2017-05-14T08:29:38.629Z,115
2017-05-14T08:34:03.413Z,110
2017-05-14T08:34:52.417Z,125
2017-05-14T08:35:48.448Z,115
2017-05-14T08:36:30.606Z,105
2017-05-14T08:37:11.127Z,105
2017-05-14T08:37:51.719Z,100
2017-05-14T08:38:32.284Z,100
2017-05-14T08:39:12.780Z,100
2017-05-14T08:39:53.359Z,95
2017-05-14T08:40:33.886Z,95
2017-05-14T08:41:14.538Z,100
2017-05-14T08:41:55.170Z,95
2017-05-14T08:42:35.486Z,95
2017-05-14T08:43:16.103Z,95
2017-05-14T08:43:56.596Z,90
2017-05-14T08:44:37.119Z,90
2017-05-14T08:45:17.699Z,90
2017-05-14T08:45:58.221Z,95
2017-05-14T08:46:42.086Z,100
2017-05-14T08:47:22.609Z,100
2017-05-14T08:48:03.135Z,100
2017-05-14T08:48:43.714Z,100
2017-05-14T08:49:24.206Z,100
2017-05-14T08:50:04.711Z,100
2017-05-14T08:50:45.208Z,100
2017-05-14T08:51:26.473Z,100
2017-05-14T08:52:07.029Z,100
2017-05-14T08:52:47.535Z,100
2017-05-14T08:53:28.053Z,100
2017-05-14T08:54:08.624Z,100
2017-05-14T08:54:49.167Z,100
2017-05-14T08:55:29.830Z,100
2017-05-14T08:56:10.390Z,100
2017-05-14T08:56:51.168Z,105
2017-05-14T08:57:31.606Z,105
2017-05-14T08:58:12.204Z,100
2017-05-14T08:58:52.905Z,105
2017-05-14T08:59:33.517Z,110
2017-05-14T09:00:14.000Z,115
2017-05-14T09:00:55.079Z,110
2017-05-14T09:01:37.039Z,110
2017-05-14T09:02:17.513Z,115
2017-05-14T09:02:58.123Z,110
2017-05-14T09:03:38.709Z,110
2017-05-14T09:04:19.351Z,115
2017-05-14T09:05:01.825Z,120
2017-05-14T09:05:42.343Z,110
2017-05-14T09:06:26.592Z,110
2017-05-14T09:07:08.195Z,105
2017-05-14T09:07:50.852Z,110
2017-05-14T09:08:32.607Z,115
2017-05-14T09:09:13.881Z,110
2017-05-14T09:09:54.352Z,110
2017-05-14T09:10:34.955Z,105
2017-05-14T09:11:17.937Z,105
2017-05-14T09:11:57.431Z,110
2017-05-14T09:12:37.981Z,110
2017-05-14T09:13:19.117Z,105
2017-05-14T09:13:59.620Z,105
2017-05-14T09:14:40.117Z,100
2017-05-14T09:15:20.998Z,100
2017-05-14T09:16:01.772Z,100
2017-05-14T09:19:47.721Z,95
2017-05-14T09:20:28.164Z,95
2017-05-14T09:21:08.888Z,95
2017-05-14T09:21:49.539Z,95
2017-05-14T09:22:30.088Z,95
2017-05-14T09:23:10.605Z,95
2017-05-14T09:23:51.144Z,95
2017-05-14T09:24:31.703Z,100
2017-05-14T09:25:12.178Z,100
2017-05-14T09:25:53.675Z,100
2017-05-14T09:26:38.059Z,100
2017-05-14T09:27:18.216Z,100
2017-05-14T09:27:58.737Z,100
2017-05-14T09:28:39.323Z,100
2017-05-14T09:29:19.772Z,100
2017-05-14T09:30:00.533Z,100
2017-05-14T09:30:40.949Z,100
2017-05-14T09:31:22.025Z,110
2017-05-14T09:32:02.575Z,105
2017-05-14T09:32:43.167Z,105
2017-05-14T09:33:23.697Z,105
2017-05-14T09:34:04.257Z,110
2017-05-14T09:34:44.848Z,105
2017-05-14T09:35:25.323Z,105
2017-05-14T09:36:06.057Z,110
2017-05-14T09:38:28.009Z,105
2017-05-14T09:39:08.348Z,105
2017-05-14T09:39:49.902Z,100
2017-05-14T09:44:28.108Z,90
2017-05-14T09:45:08.825Z,90
2017-05-14T09:45:51.203Z,95
2017-05-14T09:46:35.625Z,100
2017-05-14T09:47:19.101Z,100
2017-05-14T09:47:59.629Z,95
2017-05-14T09:48:40.092Z,100
2017-05-14T09:49:21.024Z,100
2017-05-14T09:50:04.303Z,105
2017-05-14T09:50:45.279Z,105
2017-05-14T09:51:29.443Z,105
2017-05-14T09:52:09.967Z,105
2017-05-14T09:52:50.478Z,100
2017-05-14T09:53:33.921Z,95
2017-05-14T09:54:14.388Z,85
2017-05-14T09:54:55.031Z,85
2017-05-14T09:55:35.580Z,90
2017-05-14T09:57:01.906Z,95
2017-05-14T09:57:42.351Z,95
2017-05-14T09:58:23.006Z,85
2017-05-14T09:59:03.586Z,85
2017-05-14T09:59:44.096Z,90
2017-05-14T10:00:24.631Z,90
2017-05-14T10:01:05.508Z,90
2017-05-14T10:01:45.900Z,85
2017-05-14T10:02:26.425Z,95
2017-05-14T10:03:07.079Z,85
2017-05-14T10:03:47.449Z,75
2017-05-14T10:04:27.972Z,75
2017-05-14T10:05:10.514Z,75
2017-05-14T10:05:50.330Z,75
2017-05-14T10:06:30.986Z,75
2017-05-14T10:07:14.902Z,75
2017-05-14T10:07:55.443Z,80
2017-05-14T10:08:35.959Z,75
2017-05-14T10:09:16.464Z,80
2017-05-14T10:09:56.982Z,95
2017-05-14T10:10:42.021Z,80
2017-05-14T10:11:23.263Z,75
2017-05-14T10:12:03.662Z,75
2017-05-14T10:12:44.804Z,75
2017-05-14T10:13:25.423Z,75
2017-05-14T10:14:06.025Z,70
2017-05-14T10:14:46.538Z,70
2017-05-14T10:15:28.740Z,70
2017-05-14T10:16:09.427Z,70
2017-05-14T10:16:49.888Z,65